Time;durP1;ratioP1;P1;durP2;ratioP2;P2;SDS_P1;SDS_P2;PMS_P1;PMS_P2;Temp;Humidity;BMP_temperature;BMP_pressure;BME280_temperature;BME280_humidity;BME280_pressure;Samples;Min_cycle;Max_cycle;Signal;HPM_P1;HPM_P2
2021/09/19 00:01:13;;;;;;;34.90;26.48;;;16.60;99.90;;;;;;5056096;28;20029;-74
2021/09/19 00:03:39;;;;;;;39.03;28.02;;;16.60;99.90;;;;;;5056060;28;20061;-73
2021/09/19 00:06:05;;;;;;;31.92;24.35;;;16.60;99.90;;;;;;5057275;28;20150;-74
2021/09/19 00:08:33;;;;;;;30.63;24.67;;;16.70;99.90;;;;;;5055830;28;20171;-73
2021/09/19 00:10:58;;;;;;;37.13;26.95;;;16.60;99.90;;;;;;5057687;28;20040;-73
2021/09/19 00:13:24;;;;;;;23.65;19.88;;;16.60;99.90;;;;;;5057155;28;20025;-73
2021/09/19 00:15:51;;;;;;;24.13;20.42;;;16.60;99.90;;;;;;5055938;28;20028;-78
2021/09/19 00:18:17;;;;;;;27.08;21.70;;;16.60;99.90;;;;;;5056978;28;20025;-73
2021/09/19 00:20:46;;;;;;;26.10;21.20;;;16.70;99.90;;;;;;5055665;28;20027;-73
2021/09/19 00:23:12;;;;;;;24.15;20.65;;;16.70;99.90;;;;;;5055859;28;20039;-71
2021/09/19 00:25:38;;;;;;;23.50;19.15;;;16.70;99.90;;;;;;5055477;28;20029;-74
2021/09/19 00:28:05;;;;;;;29.05;21.35;;;16.70;99.90;;;;;;5056541;28;20482;-74
2021/09/19 00:30:31;;;;;;;22.20;19.55;;;16.70;99.90;;;;;;5055674;28;20044;-74
2021/09/19 00:32:58;;;;;;;21.92;17.73;;;16.60;99.90;;;;;;5055496;28;20025;-74
2021/09/19 00:35:26;;;;;;;25.85;21.23;;;16.60;99.90;;;;;;5056750;28;20032;-73
2021/09/19 00:37:51;;;;;;;22.13;16.88;;;16.50;99.90;;;;;;5055446;28;20033;-73
2021/09/19 00:40:17;;;;;;;19.13;17.13;;;16.50;99.90;;;;;;5056422;28;20021;-74
2021/09/19 00:42:43;;;;;;;18.90;16.92;;;16.40;99.90;;;;;;5056362;28;20029;-74
2021/09/19 00:45:13;;;;;;;19.50;16.60;;;16.40;99.90;;;;;;5056593;28;20502;-74
2021/09/19 00:47:40;;;;;;;19.05;16.42;;;16.30;99.90;;;;;;5055291;28;20167;-76
2021/09/19 00:50:08;;;;;;;18.98;16.85;;;16.30;99.90;;;;;;5055075;28;20029;-74
2021/09/19 00:52:35;;;;;;;27.98;18.95;;;16.20;99.90;;;;;;5054979;28;20475;-72
2021/09/19 00:55:02;;;;;;;21.05;18.85;;;16.20;99.90;;;;;;5056639;28;20521;-74
2021/09/19 00:57:28;;;;;;;17.80;15.90;;;16.10;99.90;;;;;;5055093;28;20087;-73
2021/09/19 00:59:54;;;;;;;17.38;15.20;;;16.10;99.90;;;;;;5056187;28;20029;-72
2021/09/19 01:02:20;;;;;;;16.20;14.32;;;16.10;99.90;;;;;;5054870;28;20373;-73
2021/09/19 01:04:47;;;;;;;17.73;15.35;;;16.00;99.90;;;;;;5056353;28;20133;-73
2021/09/19 01:07:14;;;;;;;18.77;15.50;;;16.00;99.90;;;;;;5054374;28;20042;-74
2021/09/19 01:09:40;;;;;;;16.95;15.13;;;15.90;99.90;;;;;;5055005;28;20040;-74
2021/09/19 01:12:08;;;;;;;15.77;14.18;;;15.90;99.90;;;;;;5054871;28;20028;-73
2021/09/19 01:14:37;;;;;;;17.63;15.35;;;15.90;99.90;;;;;;5055870;28;20029;-73
2021/09/19 01:17:05;;;;;;;18.02;16.20;;;15.80;99.90;;;;;;5056135;28;20033;-74
2021/09/19 01:19:34;;;;;;;20.77;18.30;;;15.80;99.90;;;;;;5054694;28;20032;-74
2021/09/19 01:22:00;;;;;;;19.55;16.95;;;15.70;99.90;;;;;;5054579;28;20021;-73
2021/09/19 01:24:28;;;;;;;19.65;17.58;;;15.70;99.90;;;;;;5056206;28;20079;-73
2021/09/19 01:26:54;;;;;;;18.65;16.20;;;15.70;99.90;;;;;;5055009;28;20032;-73
2021/09/19 01:29:20;;;;;;;20.77;16.25;;;15.60;99.90;;;;;;5055833;28;20039;-76
2021/09/19 01:31:46;;;;;;;21.33;19.00;;;15.60;99.90;;;;;;5054578;28;20022;-72
2021/09/19 01:34:12;;;;;;;20.73;17.13;;;15.50;99.90;;;;;;5055789;28;20143;-74
2021/09/19 01:36:37;;;;;;;20.02;17.92;;;15.50;99.90;;;;;;5055554;28;20053;-73
2021/09/19 01:39:05;;;;;;;20.48;18.30;;;15.50;99.90;;;;;;5054345;28;20036;-73
2021/09/19 01:41:31;;;;;;;26.60;22.48;;;15.40;99.90;;;;;;5054428;28;20410;-74
2021/09/19 01:43:57;;;;;;;26.25;21.70;;;15.40;99.90;;;;;;5055761;28;20039;-75
2021/09/19 01:46:23;;;;;;;23.23;20.38;;;15.40;99.90;;;;;;5054052;28;20025;-73
2021/09/19 01:48:49;;;;;;;25.20;20.98;;;15.30;99.90;;;;;;5054028;28;20032;-74
2021/09/19 01:51:15;;;;;;;26.95;21.98;;;15.30;99.90;;;;;;5054107;28;20475;-72
2021/09/19 01:53:41;;;;;;;24.92;21.38;;;15.20;99.90;;;;;;5055390;28;20422;-72
2021/09/19 01:56:08;;;;;;;25.98;21.88;;;15.10;99.90;;;;;;5053964;28;20021;-73
2021/09/19 01:58:50;;;;;;;40.75;30.40;;;15.10;99.90;;;;;;5055118;28;20029;-73
2021/09/19 02:01:17;;;;;;;32.63;27.65;;;15.10;99.90;;;;;;5053754;28;20075;-73
2021/09/19 02:03:43;;;;;;;22.52;19.98;;;15.00;99.90;;;;;;5053816;28;20429;-74
2021/09/19 02:06:10;;;;;;;29.48;24.10;;;15.00;99.90;;;;;;5054345;28;20140;-73
2021/09/19 02:08:36;;;;;;;23.90;19.50;;;15.00;99.90;;;;;;5054996;28;20028;-73
2021/09/19 02:11:04;;;;;;;25.70;21.55;;;15.00;99.90;;;;;;5055205;28;20036;-74
2021/09/19 02:13:30;;;;;;;22.23;19.92;;;15.00;99.90;;;;;;5053564;28;20467;-73
2021/09/19 02:15:56;;;;;;;20.75;18.52;;;15.00;99.90;;;;;;5054950;28;20028;-73
2021/09/19 02:18:22;;;;;;;20.17;17.90;;;15.00;99.90;;;;;;5054143;28;20055;-74
2021/09/19 02:20:48;;;;;;;23.98;18.08;;;15.10;99.90;;;;;;5053254;28;20029;-73
2021/09/19 02:23:13;;;;;;;29.73;20.92;;;15.10;99.90;;;;;;5054491;28;20021;-73
2021/09/19 02:25:39;;;;;;;27.50;18.90;;;15.20;99.90;;;;;;5053378;28;20083;-73
2021/09/19 02:28:04;;;;;;;37.55;19.83;;;15.20;99.90;;;;;;5053538;28;20029;-72
2021/09/19 02:30:30;;;;;;;35.38;18.60;;;15.30;99.90;;;;;;5054657;28;20044;-76
2021/09/19 02:32:56;;;;;;;31.70;18.42;;;15.40;99.90;;;;;;5053087;28;20021;-74
2021/09/19 02:35:22;;;;;;;40.45;22.67;;;15.40;99.90;;;;;;5054283;28;20494;-73
2021/09/19 02:37:47;;;;;;;46.95;23.75;;;15.50;99.90;;;;;;5054261;28;20082;-73
2021/09/19 02:40:14;;;;;;;28.83;18.45;;;15.50;99.90;;;;;;5054651;28;20036;-72
2021/09/19 02:42:40;;;;;;;38.78;20.30;;;15.50;99.90;;;;;;5053064;28;20025;-73
2021/09/19 02:45:08;;;;;;;33.40;20.00;;;15.60;99.90;;;;;;5054646;28;20099;-73
2021/09/19 02:47:34;;;;;;;37.88;20.38;;;15.70;99.90;;;;;;5052609;28;20483;-73
2021/09/19 02:50:00;;;;;;;37.88;22.15;;;15.70;99.90;;;;;;5053414;28;20029;-73
2021/09/19 02:52:26;;;;;;;26.70;20.88;;;15.70;99.90;;;;;;5053390;28;20463;-73
2021/09/19 02:54:52;;;;;;;38.67;25.77;;;15.70;99.90;;;;;;5054458;28;20497;-71
2021/09/19 02:57:18;;;;;;;37.42;25.25;;;15.80;99.90;;;;;;5054545;28;20041;-73
2021/09/19 02:59:43;;;;;;;34.78;25.15;;;15.70;99.90;;;;;;5052725;28;20025;-73
2021/09/19 03:02:09;;;;;;;25.00;19.80;;;15.70;99.90;;;;;;5052552;28;20486;-73
2021/09/19 03:04:35;;;;;;;24.70;17.67;;;15.70;99.90;;;;;;5052724;28;20106;-72
2021/09/19 03:07:00;;;;;;;20.80;14.32;;;15.60;99.90;;;;;;5054077;28;20040;-72
2021/09/19 03:09:26;;;;;;;20.58;14.63;;;15.60;99.90;;;;;;5053746;28;20164;-73
2021/09/19 03:11:53;;;;;;;15.68;13.73;;;15.50;99.90;;;;;;5053794;28;20052;-71
2021/09/19 03:14:19;;;;;;;18.48;14.30;;;15.50;99.90;;;;;;5053770;28;20032;-72
2021/09/19 03:16:44;;;;;;;16.27;12.70;;;15.50;99.90;;;;;;5052274;28;20020;-73
2021/09/19 03:19:10;;;;;;;13.35;11.93;;;15.50;99.90;;;;;;5054492;28;20021;-73
2021/09/19 03:21:35;;;;;;;15.20;11.25;;;15.40;99.90;;;;;;5052499;28;20478;-72
2021/09/19 03:24:01;;;;;;;12.77;10.65;;;15.40;99.90;;;;;;5052491;28;20079;-74
2021/09/19 03:26:27;;;;;;;11.15;9.95;;;15.30;99.90;;;;;;5053776;28;20105;-74
2021/09/19 03:28:53;;;;;;;10.35;7.13;;;15.30;99.90;;;;;;5053350;28;20037;-73
2021/09/19 03:31:18;;;;;;;7.65;6.03;;;15.20;99.90;;;;;;5052817;28;20029;-73
2021/09/19 03:33:44;;;;;;;8.50;6.28;;;15.10;99.90;;;;;;5053803;28;20064;-73
2021/09/19 03:36:10;;;;;;;7.43;5.57;;;15.10;99.90;;;;;;5053855;28;20021;-77
2021/09/19 03:38:36;;;;;;;6.32;5.65;;;15.00;99.90;;;;;;5052179;28;20123;-71
2021/09/19 03:41:02;;;;;;;5.93;5.10;;;14.90;99.90;;;;;;5053353;28;20069;-73
2021/09/19 03:43:27;;;;;;;6.50;5.80;;;14.90;99.90;;;;;;5053347;28;20029;-72
2021/09/19 03:45:53;;;;;;;8.60;5.78;;;14.90;99.90;;;;;;5052172;28;20032;-73
2021/09/19 03:48:19;;;;;;;9.35;7.10;;;14.90;99.90;;;;;;5051953;28;20037;-72
2021/09/19 03:50:45;;;;;;;7.25;5.63;;;14.90;99.90;;;;;;5053258;28;20103;-73
2021/09/19 03:53:11;;;;;;;7.20;5.65;;;14.90;99.90;;;;;;5053316;28;20021;-73
2021/09/19 03:55:36;;;;;;;7.00;5.90;;;15.00;99.90;;;;;;5053386;28;20031;-72
2021/09/19 03:58:02;;;;;;;7.65;5.13;;;15.20;99.90;;;;;;5053410;28;20060;-73
2021/09/19 04:00:28;;;;;;;10.00;5.50;;;15.40;99.90;;;;;;5053032;28;20075;-73
2021/09/19 04:02:54;;;;;;;10.10;5.72;;;15.60;99.90;;;;;;5053011;28;20074;-74
2021/09/19 04:05:20;;;;;;;13.35;5.70;;;16.00;99.90;;;;;;5053052;28;20124;-73
2021/09/19 04:07:45;;;;;;;7.07;4.45;;;16.30;99.90;;;;;;5051817;28;20047;-74
2021/09/19 04:10:12;;;;;;;5.90;4.60;;;16.50;99.90;;;;;;5051884;28;20044;-72
2021/09/19 04:12:38;;;;;;;7.30;4.78;;;16.80;99.90;;;;;;5051780;28;20124;-73
2021/09/19 04:15:05;;;;;;;7.07;5.35;;;17.00;99.90;;;;;;5051609;28;20025;-73
2021/09/19 04:17:31;;;;;;;6.75;4.70;;;17.20;99.90;;;;;;5053602;28;20033;-74
2021/09/19 04:19:56;;;;;;;6.60;4.18;;;17.40;99.90;;;;;;5051760;28;20025;-73
2021/09/19 04:22:24;;;;;;;10.63;5.00;;;17.60;99.90;;;;;;5053156;28;20134;-72
2021/09/19 04:24:51;;;;;;;7.63;5.30;;;17.70;99.90;;;;;;5052965;28;20109;-73
2021/09/19 04:27:17;;;;;;;10.65;5.93;;;17.60;99.90;;;;;;5051505;28;20033;-73
2021/09/19 04:29:43;;;;;;;12.32;6.45;;;17.40;99.90;;;;;;5051693;28;20035;-73
2021/09/19 04:32:09;;;;;;;7.47;5.07;;;17.30;99.90;;;;;;5052983;28;20036;-73
2021/09/19 04:34:34;;;;;;;6.97;5.95;;;17.10;99.90;;;;;;5051723;28;20402;-73
2021/09/19 04:37:00;;;;;;;7.75;5.30;;;17.00;99.90;;;;;;5052890;28;20408;-72
2021/09/19 04:39:26;;;;;;;17.58;6.38;;;16.90;99.90;;;;;;5051450;28;20032;-73
2021/09/19 04:41:51;;;;;;;13.65;7.03;;;16.80;99.90;;;;;;5051607;28;20029;-71
2021/09/19 04:44:17;;;;;;;8.25;5.43;;;16.70;99.90;;;;;;5055369;28;20121;-73
2021/09/19 04:46:43;;;;;;;10.77;7.90;;;16.70;99.90;;;;;;5056283;28;20021;-73
2021/09/19 04:49:08;;;;;;;12.65;7.93;;;16.60;99.90;;;;;;5056528;28;20102;-73
2021/09/19 04:51:34;;;;;;;7.97;5.43;;;16.60;99.90;;;;;;5055915;28;20368;-72
2021/09/19 04:54:00;;;;;;;10.60;6.28;;;16.50;99.90;;;;;;5055295;28;20418;-72
2021/09/19 04:56:26;;;;;;;7.70;5.63;;;16.60;99.90;;;;;;5056437;28;20028;-73
2021/09/19 04:58:52;;;;;;;7.75;5.65;;;16.80;99.90;;;;;;5055060;28;20386;-72
2021/09/19 05:01:18;;;;;;;6.38;4.50;;;17.30;99.90;;;;;;5055076;28;20021;-73
2021/09/19 05:03:44;;;;;;;9.93;4.80;;;18.00;99.90;;;;;;5054776;28;20044;-73
2021/09/19 05:06:09;;;;;;;9.82;4.40;;;18.80;99.90;;;;;;5054922;28;20452;-76
2021/09/19 05:08:35;;;;;;;7.00;4.07;;;19.50;99.90;;;;;;5054522;28;20131;-73
2021/09/19 05:11:01;;;;;;;9.88;4.22;;;20.20;99.90;;;;;;5054707;28;20064;-73
2021/09/19 05:13:27;;;;;;;7.43;4.40;;;20.80;99.90;;;;;;5055763;28;20028;-74
2021/09/19 05:15:53;;;;;;;6.63;4.65;;;21.10;99.90;;;;;;5055251;28;20029;-74
2021/09/19 05:18:19;;;;;;;7.00;4.10;;;21.40;99.00;;;;;;5054597;28;20032;-73
2021/09/19 05:20:45;;;;;;;5.32;4.30;;;21.70;96.90;;;;;;5056206;28;20375;-72
2021/09/19 05:23:11;;;;;;;6.50;4.55;;;21.80;94.00;;;;;;5054541;28;20617;-73
2021/09/19 05:25:36;;;;;;;6.38;4.25;;;22.00;92.40;;;;;;5055880;28;20095;-76
2021/09/19 05:28:02;;;;;;;4.90;4.10;;;22.20;91.90;;;;;;5054251;28;20044;-73
2021/09/19 05:30:28;;;;;;;6.93;4.28;;;22.50;90.90;;;;;;5054796;28;20021;-73
2021/09/19 05:32:53;;;;;;;6.07;4.05;;;22.90;90.00;;;;;;5055495;28;20029;-73
2021/09/19 05:35:19;;;;;;;4.60;3.75;;;23.10;86.50;;;;;;5055686;28;20095;-72
2021/09/19 05:37:45;;;;;;;6.25;4.25;;;23.20;83.90;;;;;;5054250;28;20029;-73
2021/09/19 05:40:11;;;;;;;6.03;4.13;;;23.10;82.00;;;;;;5054347;28;20033;-75
2021/09/19 05:42:37;;;;;;;6.38;4.57;;;23.20;82.40;;;;;;5055404;28;20498;-73
2021/09/19 05:45:03;;;;;;;8.23;4.10;;;23.70;83.00;;;;;;5053808;28;20030;-74
2021/09/19 05:47:29;;;;;;;5.43;4.00;;;24.30;81.50;;;;;;5054078;28;20517;-74
2021/09/19 05:49:55;;;;;;;5.40;4.03;;;24.70;78.50;;;;;;5055514;28;20028;-73
2021/09/19 05:52:20;;;;;;;5.03;3.63;;;25.00;76.10;;;;;;5054986;28;20068;-73
2021/09/19 05:54:46;;;;;;;6.85;4.70;;;25.40;74.60;;;;;;5054073;28;20025;-74
2021/09/19 05:57:11;;;;;;;8.93;4.65;;;25.70;73.40;;;;;;5055116;28;20433;-74
2021/09/19 05:59:37;;;;;;;7.45;4.35;;;26.10;72.50;;;;;;5054072;28;20032;-73
2021/09/19 06:02:03;;;;;;;7.57;4.75;;;26.40;71.60;;;;;;5054866;28;20025;-74
2021/09/19 06:04:29;;;;;;;5.72;3.90;;;26.60;69.70;;;;;;5053452;28;20025;-76
2021/09/19 06:06:54;;;;;;;8.20;4.57;;;26.70;68.90;;;;;;5053446;28;20041;-74
2021/09/19 06:09:20;;;;;;;5.95;4.85;;;27.00;68.10;;;;;;5053472;28;20025;-74
2021/09/19 06:11:46;;;;;;;5.53;4.43;;;27.00;66.20;;;;;;5054883;28;20025;-75
2021/09/19 06:14:11;;;;;;;7.00;4.13;;;27.20;65.60;;;;;;5053667;28;20032;-72
2021/09/19 06:16:38;;;;;;;6.93;4.60;;;27.30;65.30;;;;;;5053575;28;20104;-74
2021/09/19 06:19:04;;;;;;;9.10;5.72;;;27.20;64.30;;;;;;5054529;28;20116;-73
2021/09/19 06:21:30;;;;;;;9.40;6.07;;;26.90;64.30;;;;;;5054519;28;20068;-74
2021/09/19 06:23:55;;;;;;;8.93;5.78;;;26.50;64.90;;;;;;5053216;28;20056;-73
2021/09/19 06:26:22;;;;;;;10.65;7.05;;;26.00;64.90;;;;;;5053315;28;20935;-74
2021/09/19 06:28:47;;;;;;;10.07;6.53;;;25.40;65.50;;;;;;5053256;28;20087;-73
2021/09/19 06:31:14;;;;;;;11.82;6.55;;;24.70;66.70;;;;;;5054900;28;20426;-73
2021/09/19 06:33:40;;;;;;;9.43;7.13;;;24.30;68.50;;;;;;5053304;28;20463;-73
2021/09/19 06:36:06;;;;;;;11.45;6.80;;;23.90;68.90;;;;;;5054256;28;20089;-74
2021/09/19 06:38:32;;;;;;;8.98;6.80;;;23.60;69.20;;;;;;5054655;28;20028;-75
2021/09/19 06:40:58;;;;;;;8.15;7.15;;;23.20;70.30;;;;;;5054138;28;20044;-74
2021/09/19 06:43:23;;;;;;;8.57;6.72;;;22.90;71.30;;;;;;5053146;28;20155;-73
2021/09/19 06:45:49;;;;;;;9.10;6.68;;;22.70;72.50;;;;;;5052971;28;20467;-76
2021/09/19 06:48:15;;;;;;;10.00;6.82;;;23.10;74.00;;;;;;5053259;28;20029;-74
2021/09/19 06:50:42;;;;;;;10.52;6.00;;;23.90;72.70;;;;;;5053046;28;20491;-73
2021/09/19 06:53:07;;;;;;;6.68;5.65;;;24.50;72.30;;;;;;5052811;28;20021;-74
2021/09/19 06:55:33;;;;;;;7.55;5.85;;;25.40;69.80;;;;;;5053801;28;20033;-73
2021/09/19 06:57:59;;;;;;;10.10;6.40;;;26.30;68.20;;;;;;5052829;28;20025;-73
2021/09/19 07:00:25;;;;;;;9.70;6.72;;;26.90;65.40;;;;;;5053130;28;20028;-73
2021/09/19 07:02:51;;;;;;;9.60;8.20;;;26.90;62.50;;;;;;5052890;28;20028;-74
2021/09/19 07:05:17;;;;;;;11.25;10.05;;;26.90;62.30;;;;;;5053871;28;20049;-73
2021/09/19 07:07:43;;;;;;;11.75;10.25;;;27.30;61.80;;;;;;5053837;28;20364;-74
2021/09/19 07:10:10;;;;;;;12.02;9.82;;;27.20;60.90;;;;;;5053886;28;20032;-74
2021/09/19 07:12:36;;;;;;;14.15;11.50;;;27.50;60.50;;;;;;5052568;28;20436;-74
2021/09/19 07:15:02;;;;;;;15.32;12.45;;;28.00;59.80;;;;;;5052490;28;20032;-73
2021/09/19 07:17:28;;;;;;;18.35;14.65;;;28.50;57.70;;;;;;5052454;28;20074;-73
2021/09/19 07:19:53;;;;;;;18.52;14.00;;;28.70;57.30;;;;;;5054138;28;20503;-73
2021/09/19 07:22:19;;;;;;;14.88;11.48;;;28.90;56.80;;;;;;5052738;28;20059;-74
2021/09/19 07:24:45;;;;;;;23.42;20.58;;;29.00;57.20;;;;;;5051973;28;20028;-73
2021/09/19 07:27:10;;;;;;;25.27;17.73;;;29.40;56.70;;;;;;5053533;28;20033;-74
2021/09/19 07:29:36;;;;;;;20.40;16.23;;;29.50;55.70;;;;;;5053315;28;20029;-73
2021/09/19 07:32:06;;;;;;;21.27;16.80;;;28.90;54.60;;;;;;5053896;28;20033;-73
2021/09/19 07:34:33;;;;;;;18.17;14.93;;;28.00;55.20;;;;;;5052366;28;20477;-72
2021/09/19 07:37:00;;;;;;;27.77;23.83;;;27.20;56.60;;;;;;5053376;28;20021;-74
2021/09/19 07:39:26;;;;;;;26.23;21.17;;;26.50;57.90;;;;;;5053914;28;20032;-73
2021/09/19 07:41:55;;;;;;;34.17;24.10;;;26.30;59.70;;;;;;5052064;28;20036;-72
2021/09/19 07:44:21;;;;;;;37.45;26.33;;;26.40;60.30;;;;;;5051849;28;20471;-76
2021/09/19 07:46:49;;;;;;;28.33;17.67;;;26.60;59.70;;;;;;5051982;28;20029;-73
2021/09/19 07:49:16;;;;;;;19.02;14.02;;;26.40;58.50;;;;;;5051662;28;20037;-73
2021/09/19 07:51:42;;;;;;;19.90;13.27;;;26.10;58.00;;;;;;5053107;28;20476;-73
2021/09/19 07:54:08;;;;;;;42.83;24.75;;;26.10;59.50;;;;;;5052075;28;20047;-73
2021/09/19 07:56:34;;;;;;;54.63;31.08;;;26.60;59.70;;;;;;5052053;28;20036;-73
2021/09/19 07:58:59;;;;;;;48.75;29.02;;;26.50;58.90;;;;;;5052489;28;20028;-73
2021/09/19 08:01:25;;;;;;;53.05;31.75;;;26.20;58.60;;;;;;5052069;28;20025;-73
2021/09/19 08:03:51;;;;;;;40.85;24.27;;;26.20;59.90;;;;;;5051968;28;20029;-72
2021/09/19 08:06:18;;;;;;;20.90;13.98;;;26.10;59.40;;;;;;5051901;28;20101;-73
2021/09/19 08:08:44;;;;;;;32.28;13.80;;;26.10;58.90;;;;;;5053264;28;20140;-73
2021/09/19 08:11:10;;;;;;;14.20;8.63;;;26.10;59.80;;;;;;5053017;28;20059;-74
2021/09/19 08:13:35;;;;;;;8.02;5.47;;;26.70;60.00;;;;;;5051811;28;20079;-74
2021/09/19 08:16:01;;;;;;;7.90;6.05;;;27.60;58.80;;;;;;5051754;28;20116;-73
2021/09/19 08:18:27;;;;;;;32.80;17.13;;;28.10;56.90;;;;;;5054603;28;20028;-74
2021/09/19 08:20:53;;;;;;;19.05;10.43;;;28.20;54.10;;;;;;5055540;28;20387;-72
2021/09/19 08:23:18;;;;;;;52.30;30.95;;;27.40;53.60;;;;;;5056567;28;20032;-73
2021/09/19 08:25:44;;;;;;;32.75;20.17;;;26.60;53.90;;;;;;5055448;28;20025;-72
2021/09/19 08:28:10;;;;;;;16.90;10.55;;;25.60;55.50;;;;;;5056615;28;20060;-74
2021/09/19 08:30:36;;;;;;;13.73;9.35;;;25.00;57.10;;;;;;5056789;28;20067;-73
2021/09/19 08:33:01;;;;;;;12.52;9.68;;;24.40;58.30;;;;;;5056670;28;20032;-72
2021/09/19 08:35:27;;;;;;;11.13;7.63;;;24.00;59.30;;;;;;5055466;28;20112;-73
2021/09/19 08:37:53;;;;;;;9.70;7.65;;;23.60;60.30;;;;;;5055470;28;20442;-73
2021/09/19 08:40:19;;;;;;;16.67;9.50;;;24.10;61.40;;;;;;5056229;28;20115;-73
2021/09/19 08:42:44;;;;;;;24.92;13.20;;;24.90;60.90;;;;;;5056439;28;20117;-73
2021/09/19 08:45:11;;;;;;;43.45;23.67;;;25.50;58.50;;;;;;5055587;28;20029;-73
2021/09/19 08:47:37;;;;;;;49.53;26.50;;;25.80;57.70;;;;;;5054915;28;20403;-73
2021/09/19 08:50:05;;;;;;;23.10;13.80;;;26.30;56.40;;;;;;5054982;28;20025;-73
2021/09/19 08:52:31;;;;;;;19.55;11.10;;;26.10;56.00;;;;;;5055088;28;20029;-72
2021/09/19 08:54:56;;;;;;;35.45;18.35;;;26.20;56.00;;;;;;5056682;28;20071;-73
2021/09/19 08:57:22;;;;;;;40.42;21.95;;;26.40;56.60;;;;;;5056290;28;20032;-72
2021/09/19 08:59:51;;;;;;;51.55;27.38;;;27.30;56.30;;;;;;5056554;28;20459;-73
2021/09/19 09:02:18;;;;;;;36.22;19.00;;;27.90;54.60;;;;;;5056261;28;20154;-74
2021/09/19 09:04:45;;;;;;;33.17;17.90;;;28.30;53.60;;;;;;5054743;28;20048;-74
2021/09/19 09:07:13;;;;;;;43.80;22.05;;;28.30;52.40;;;;;;5056147;28;20029;-74
2021/09/19 09:09:53;;;;;;;50.17;25.50;;;28.20;51.30;;;;;;5054866;28;20025;-74
2021/09/19 09:12:18;;;;;;;41.25;24.38;;;27.30;51.00;;;;;;5054839;28;20463;-74
2021/09/19 09:14:54;;;;;;;43.17;23.35;;;26.70;53.20;;;;;;5054918;28;20031;-74
2021/09/19 09:17:26;;;;;;;35.25;20.83;;;27.10;53.80;;;;;;5055388;28;20466;-73
2021/09/19 09:19:58;;;;;;;50.88;23.30;;;27.00;52.30;;;;;;5056161;28;20021;-74
2021/09/19 09:22:32;;;;;;;44.03;22.35;;;26.30;52.80;;;;;;5055881;28;20021;-74
2021/09/19 09:25:21;;;;;;;42.35;22.95;;;25.70;53.80;;;;;;5054322;28;20025;-73
2021/09/19 09:27:52;;;;;;;20.67;12.48;;;25.00;56.40;;;;;;5054881;28;20390;-74
2021/09/19 09:30:25;;;;;;;12.13;8.30;;;25.30;57.20;;;;;;5053812;28;20049;-73
2021/09/19 09:33:02;;;;;;;7.90;6.00;;;25.30;56.50;;;;;;5055628;28;20455;-72
2021/09/19 09:35:37;;;;;;;8.15;5.80;;;25.20;56.80;;;;;;5054521;28;20078;-74
2021/09/19 09:38:24;;;;;;;11.73;6.45;;;25.80;57.10;;;;;;5054124;28;20040;-73
2021/09/19 09:40:55;;;;;;;13.48;6.50;;;26.60;55.90;;;;;;5055532;28;20044;-75
2021/09/19 09:43:21;;;;;;;15.30;7.75;;;27.20;54.10;;;;;;5054248;28;20028;-73
2021/09/19 09:45:49;;;;;;;18.70;9.70;;;27.20;53.50;;;;;;5054182;28;20025;-73
2021/09/19 09:48:38;;;;;;;30.88;12.13;;;27.30;53.90;;;;;;5054400;28;20060;-73
2021/09/19 09:51:18;;;;;;;9.13;5.40;;;27.90;53.30;;;;;;5055864;28;20367;-72
2021/09/19 09:53:44;;;;;;;8.65;4.45;;;28.70;52.20;;;;;;5055188;28;20032;-72
2021/09/19 09:56:10;;;;;;;9.65;5.75;;;29.50;51.30;;;;;;5053851;28;20025;-72
2021/09/19 09:58:35;;;;;;;22.50;12.75;;;30.10;50.00;;;;;;5053717;28;20458;-74
2021/09/19 10:01:02;;;;;;;11.40;6.68;;;30.20;49.10;;;;;;5053627;28;20108;-72
2021/09/19 10:03:28;;;;;;;13.73;5.63;;;29.80;48.60;;;;;;5054186;28;20090;-72
2021/09/19 10:05:54;;;;;;;10.02;4.25;;;29.70;48.50;;;;;;5054741;28;20099;-73
2021/09/19 10:08:23;;;;;;;7.72;4.20;;;29.60;48.00;;;;;;5053673;28;20083;-73
2021/09/19 10:10:49;;;;;;;5.22;3.30;;;28.90;48.80;;;;;;5053535;28;20487;-73
2021/09/19 10:13:15;;;;;;;7.07;3.60;;;28.40;49.90;;;;;;5053313;28;20025;-73
2021/09/19 10:15:42;;;;;;;5.97;4.13;;;28.70;50.90;;;;;;5053694;28;20436;-72
2021/09/19 10:18:10;;;;;;;5.47;4.38;;;29.20;50.50;;;;;;5054687;28;20091;-75
2021/09/19 10:20:41;;;;;;;5.95;3.58;;;29.50;49.30;;;;;;5054603;28;20529;-75
2021/09/19 10:23:15;;;;;;;4.47;2.80;;;29.40;49.10;;;;;;5053483;28;20368;-74
2021/09/19 10:26:06;;;;;;;4.30;2.88;;;29.80;48.80;;;;;;5053163;28;20025;-74
2021/09/19 10:28:40;;;;;;;4.10;2.40;;;30.20;47.50;;;;;;5054584;28;20055;-72
2021/09/19 10:31:09;;;;;;;;;;;30.60;47.80;;;;;;5053714;28;20028;-72
2021/09/19 10:33:54;;;;;;;12.13;2.78;;;31.30;48.90;;;;;;5053351;28;19949;-73
2021/09/19 10:36:31;;;;;;;27.42;10.63;;;31.10;44.70;;;;;;5053232;28;20463;-74
2021/09/19 10:39:19;;;;;;;24.73;7.00;;;30.20;44.80;;;;;;5053842;28;20146;-73
2021/09/19 10:42:20;;;;;;;5.30;2.60;;;29.70;46.70;;;;;;5053459;28;20041;-73
2021/09/19 10:44:46;;;;;;;12.00;4.65;;;30.30;46.90;;;;;;5053102;28;20029;-73
2021/09/19 10:47:13;;;;;;;12.55;5.40;;;30.50;45.90;;;;;;5052854;28;20368;-72
2021/09/19 10:49:40;;;;;;;31.30;11.15;;;29.70;44.60;;;;;;5054110;28;20025;-72
2021/09/19 10:52:08;;;;;;;46.45;20.02;;;28.80;45.00;;;;;;5054059;28;20104;-72
2021/09/19 10:54:49;;;;;;;47.80;19.88;;;27.80;46.30;;;;;;5052790;28;20111;-72
2021/09/19 10:57:26;;;;;;;29.50;12.98;;;26.90;47.90;;;;;;5054336;28;20025;-73
2021/09/19 11:00:10;;;;;;;11.35;5.05;;;26.60;49.70;;;;;;5054182;28;20102;-73
2021/09/19 11:02:39;;;;;;;7.23;2.67;;;26.60;49.90;;;;;;5053869;28;20047;-73
2021/09/19 11:05:25;;;;;;;4.68;2.28;;;26.60;49.70;;;;;;5053737;28;20045;-73
2021/09/19 11:08:04;;;;;;;6.45;2.72;;;26.60;50.00;;;;;;5053685;28;20124;-73
2021/09/19 11:10:30;;;;;;;4.75;2.03;;;27.30;49.50;;;;;;5054349;28;20024;-75
2021/09/19 11:12:56;;;;;;;3.65;2.15;;;28.00;48.50;;;;;;5053810;28;20477;-73
2021/09/19 11:15:24;;;;;;;4.03;2.20;;;28.30;47.50;;;;;;5052489;28;20056;-73
2021/09/19 11:17:51;;;;;;;2.90;2.10;;;28.40;47.50;;;;;;5052056;28;20110;-73
2021/09/19 11:20:17;;;;;;;4.03;2.40;;;28.80;47.80;;;;;;5053112;28;20032;-73
2021/09/19 11:22:46;;;;;;;10.05;3.92;;;28.80;47.30;;;;;;5052907;28;20029;-73
2021/09/19 11:25:14;;;;;;;3.90;2.40;;;28.30;47.70;;;;;;5052486;28;20063;-72
2021/09/19 11:27:43;;;;;;;4.15;2.60;;;27.80;48.10;;;;;;5053973;28;20035;-73
2021/09/19 11:30:10;;;;;;;3.95;2.80;;;28.10;48.60;;;;;;5053602;28;20035;-75
2021/09/19 11:32:37;;;;;;;4.65;2.97;;;28.40;47.80;;;;;;5053252;28;20029;-73
2021/09/19 11:35:04;;;;;;;7.13;5.00;;;28.40;47.80;;;;;;5052345;28;20025;-73
2021/09/19 11:37:30;;;;;;;3.92;2.63;;;28.80;47.40;;;;;;5053353;28;20498;-73
2021/09/19 11:39:57;;;;;;;5.18;2.95;;;29.40;46.90;;;;;;5052056;28;20053;-73
2021/09/19 11:42:26;;;;;;;4.50;3.10;;;30.00;45.90;;;;;;5053666;28;20028;-73
2021/09/19 11:44:55;;;;;;;3.50;2.47;;;29.60;45.70;;;;;;5052242;28;20083;-72
2021/09/19 11:47:23;;;;;;;4.80;3.08;;;28.90;45.80;;;;;;5053487;28;20033;-73
2021/09/19 11:49:52;;;;;;;5.78;3.13;;;28.00;46.60;;;;;;5052386;28;20025;-73
2021/09/19 11:52:21;;;;;;;5.88;2.50;;;27.10;47.80;;;;;;5054437;28;20028;-76
2021/09/19 11:54:47;;;;;;;6.22;3.13;;;26.30;48.90;;;;;;5057429;28;20100;-73
2021/09/19 11:57:15;;;;;;;5.07;3.05;;;25.50;50.20;;;;;;5056043;28;20025;-72
2021/09/19 11:59:45;;;;;;;3.60;2.55;;;25.00;51.70;;;;;;5057370;28;20021;-73
2021/09/19 12:02:12;;;;;;;4.25;2.40;;;24.70;52.90;;;;;;5056426;28;20025;-71
2021/09/19 12:04:41;;;;;;;3.40;2.67;;;24.50;53.70;;;;;;5055638;28;20179;-73
2021/09/19 12:07:11;;;;;;;10.50;2.83;;;24.70;53.30;;;;;;5056279;28;20387;-73
2021/09/19 12:09:43;;;;;;;3.10;2.35;;;24.70;53.40;;;;;;5057145;28;20074;-73
2021/09/19 12:12:13;;;;;;;5.22;2.58;;;24.70;53.70;;;;;;5057125;28;20025;-76
2021/09/19 12:14:46;;;;;;;3.88;2.40;;;24.60;53.50;;;;;;5056042;28;20026;-72
2021/09/19 12:17:12;;;;;;;6.18;3.00;;;24.50;53.50;;;;;;5059418;28;20036;-71
2021/09/19 12:19:41;;;;;;;4.30;2.30;;;24.30;54.40;;;;;;5059469;28;20025;-73
2021/09/19 12:22:14;;;;;;;9.82;3.20;;;24.10;54.40;;;;;;5055680;28;20025;-72
2021/09/19 12:24:40;;;;;;;6.10;2.90;;;24.10;54.30;;;;;;5055660;28;20088;-73
2021/09/19 12:27:14;;;;;;;4.70;2.30;;;24.10;54.70;;;;;;5057002;28;20063;-72
2021/09/19 12:29:41;;;;;;;7.00;2.95;;;23.90;55.40;;;;;;5056895;28;20116;-72
2021/09/19 12:32:08;;;;;;;3.28;2.42;;;23.70;55.20;;;;;;5056716;28;20033;-72
2021/09/19 12:34:33;;;;;;;3.88;2.58;;;23.50;56.00;;;;;;5055346;28;20036;-72
2021/09/19 12:36:59;;;;;;;6.80;2.67;;;23.40;56.10;;;;;;5056686;28;20029;-73